Asturias/Aviles, Spain
Current Conditions -  °F | °C
As of 11:30 PM on Tuesday 25 Nov 2014 (Local Time) from LEAS Reporting Station
Broken Clouds Broken Clouds  
Wind Chill: 52°   Ceiling: 1900
Heat Index: 52°   Visibility: 6mi
Dew Point: 50°   Wind: 5mph
Humidity: 94%   Direction: 250°WSW
Pressure: 30.03"   Gusts: NA
Location:  43.56°N, 5.93°W
Report Text: LEAS 252230Z 25004KT 9999 SCT012 BKN019 11/10 Q1017 NOSIG
Loading
Personal Weather Stations






























Interactive Weather Map New forecast layout! Learn more

10-Day Weather Forecast

Advertisements
Track Severe Weather on mobile